Latest Weather Observations for Hughenden

IDQ60801

Issued at 6:02 pm EST Tuesday 28 July 2015 (issued every 30 minutes, with the page automatically refreshed every 10 minutes)

About weather observations | Map of weather stations | Latest weather observations for QLD | Other Formats
Station Details ID: 030022 Name: HUGHENDEN AIRPORT Lat: -20.82 Lon: 144.23 Height: 316.4 m
Data from the previous 72 hours. | See also: Recent months at Hughenden
Date/Time
EST
Temp
°C
App
Temp
°C
Dew
Point
Rel
Hum
%
Delta-T
°C
Wind Press
QNH
hPa
Press
MSL
hPa
Rain
since 9 am
mm
Dir
 
Spd
km/h
Gust
km/h
Spd
kts
Gust
kts
28/06:00pm 21.9 16.8 4.0 31 8.8 SSE 20 32 11 17 1023.5 1022.8 0.0
28/05:30pm 23.0 17.7 5.0 31 9.1 SE 22 30 12 16 1023.2 1022.6 0.0
28/05:00pm 23.8 18.5 5.2 30 9.5 SSE 22 30 12 16 1022.9 1022.2 0.0
28/04:30pm 23.9 19.0 5.3 30 9.5 SE 20 33 11 18 1022.8 1022.1 0.0
28/04:00pm 25.0 19.4 5.2 28 10.1 SE 24 35 13 19 1022.6 1021.9 0.0
28/03:30pm 25.3 20.1 5.5 28 10.3 SE 22 33 12 18 1022.5 1021.8 0.0
28/03:00pm 25.2 20.1 5.9 29 10.0 SE 22 32 12 17 1022.4 1021.7 0.0
28/02:30pm 25.1 20.0 5.8 29 10.0 SE 22 28 12 15 1022.6 1021.9 0.0
28/02:00pm 25.6 20.5 5.8 28 10.3 ESE 22 30 12 16 1022.6 1021.9 0.0
28/01:30pm 24.7 19.5 5.5 29 9.9 SE 22 35 12 19 1023.0 1022.3 0.0
28/01:00pm 24.7 19.9 5.5 29 9.9 SE 20 30 11 16 1023.5 1022.8 0.0
28/12:30pm 24.0 18.8 5.4 30 9.5 ESE 22 32 12 17 1023.9 1023.2 0.0
28/12:00pm 23.5 18.0 4.0 28 9.7 ESE 22 30 12 16 1024.5 1023.8 0.0
28/11:30am 22.5 16.2 3.6 29 9.3 ESE 26 35 14 19 1024.9 1024.2 0.0
28/11:00am 21.6 15.6 3.3 30 8.8 ESE 24 32 13 17 1025.2 1024.5 0.0
28/10:30am 21.3 14.9 3.0 30 8.8 ESE 26 35 14 19 1025.5 1024.8 0.0
28/10:00am 20.3 13.8 2.6 31 8.3 ESE 26 35 14 19 1025.7 1025.0 0.0
28/09:30am 19.4 13.6 2.3 32 8.0 ESE 22 33 12 18 1025.7 1025.0 0.0
28/09:00am 18.7 12.8 1.7 32 7.8 SE 22 32 12 17 1025.6 1024.9 0.0
28/08:30am 18.0 12.7 1.9 34 7.4 SE 19 26 10 14 1025.7 1025.0 0.0
28/08:00am 16.1 12.0 2.2 39 6.3 SE 13 20 7 11 1025.5 1024.8 0.0
28/07:30am 15.6 12.2 1.7 39 6.2 SE 9 13 5 7 1025.2 1024.5 0.0
28/07:00am 15.4 11.6 1.5 39 6.2 SSE 11 13 6 7 1024.9 1024.2 0.0
28/06:30am 15.9 11.6 1.2 37 6.5 SSE 13 17 7 9 1024.5 1023.8 0.0
28/06:00am 16.4 12.1 1.3 36 6.7 SSE 13 19 7 10 1024.1 1023.4 0.0
28/05:30am 13.9 10.7 -0.2 38 6.0 SSE 6 9 3 5 1023.7 1023.0 0.0
28/05:00am 13.7 10.5 -0.3 38 5.9 ENE 6 9 3 5 1023.6 1022.9 0.0
28/04:30am 13.4 9.6 -0.6 38 5.9 S 9 9 5 5 1023.8 1023.1 0.0
28/04:00am 12.5 8.6 -1.8 37 5.7 SW 9 11 5 6 1024.3 1023.6 0.0
28/03:30am 13.0 9.5 -1.7 36 6.0 SSE 7 9 4 5 1023.9 1023.2 0.0
28/03:00am 13.4 9.9 -2.5 33 6.3 SE 6 7 3 4 1024.0 1023.3 0.0
28/02:30am 13.6 11.3 -2.3 33 6.4 CALM 0 0 0 0 1024.0 1023.3 0.0
28/02:00am 13.6 11.2 -2.8 32 6.5 CALM 0 0 0 0 1024.2 1023.5 0.0
28/01:30am 14.2 11.5 -2.7 31 6.8 E 2 9 1 5 1024.1 1023.4 0.0
28/01:00am 15.0 12.7 -2.4 30 7.1 CALM 0 6 0 3 1024.6 1023.9 0.0
28/12:30am 15.7 12.0 -2.7 28 7.5 SW 7 9 4 5 1024.8 1024.1 0.0
28/12:00am 16.9 12.5 -2.2 27 7.9 SSE 11 13 6 7 1024.6 1023.9 0.0
 
Date/Time
EST
Temp
°C
App
Temp
°C
Dew
Point
Rel
Hum
%
Delta-T
°C
Wind Press
QNH
hPa
Press
MSL
hPa
Rain
since 9 am
mm
Dir
 
Spd
km/h
Gust
km/h
Spd
kts
Gust
kts
27/11:30pm 17.8 12.7 -1.9 26 8.3 S 15 20 8 11 1024.9 1024.2 0.0
27/11:00pm 18.4 12.9 -2.0 25 8.6 S 17 22 9 12 1025.1 1024.4 0.0
27/10:30pm 19.1 13.1 -1.4 25 8.9 S 20 24 11 13 1024.9 1024.2 0.0
27/10:00pm 19.8 13.1 -0.8 25 9.0 S 24 30 13 16 1024.7 1024.0 0.0
27/09:30pm 20.1 13.4 -1.1 24 9.3 S 24 32 13 17 1024.6 1023.9 0.0
27/09:00pm 20.7 13.6 -1.2 23 9.6 S 26 37 14 20 1024.5 1023.8 0.0
27/08:30pm 21.4 14.9 0.0 24 9.7 S 24 33 13 18 1024.5 1023.8 0.0
27/08:00pm 21.9 15.3 -0.1 23 10.0 S 24 35 13 19 1024.3 1023.6 0.0
27/07:30pm 22.6 15.6 -0.2 22 10.4 S 26 37 14 20 1023.8 1023.1 0.0
27/07:00pm 23.3 16.9 1.0 23 10.4 S 24 35 13 19 1023.5 1022.8 0.0
27/06:30pm 23.9 17.5 0.9 22 10.8 S 24 32 13 17 1022.8 1022.1 0.0
27/06:00pm 24.9 18.2 1.7 22 11.1 S 26 37 14 20 1022.4 1021.7 0.0
27/05:30pm 26.8 21.2 3.3 22 11.8 S 22 35 12 19 1021.9 1021.2 0.0
27/05:00pm 27.5 21.1 3.2 21 12.2 S 26 35 14 19 1021.4 1020.7 0.0
27/04:30pm 28.3 22.8 3.9 21 12.5 SSE 22 32 12 17 1021.2 1020.5 0.0
27/04:00pm 28.2 23.0 3.8 21 12.4 SSE 20 35 11 19 1020.9 1020.2 0.0
27/03:30pm 28.0 22.8 3.7 21 12.4 SSE 20 30 11 16 1020.9 1020.2 0.0
27/03:00pm 28.4 22.8 3.3 20 12.7 SSE 22 32 12 17 1020.8 1020.1 0.0
27/02:30pm 28.4 23.2 3.3 20 12.7 SSE 20 35 11 19 1020.8 1020.1 0.0
27/02:00pm 27.8 22.2 3.5 21 12.3 SSE 22 33 12 18 1021.2 1020.5 0.0
27/01:30pm 28.2 22.7 3.8 21 12.5 SSE 22 33 12 18 1021.7 1021.0 0.0
27/01:00pm 27.1 22.1 3.6 22 11.9 SSE 19 30 10 16 1022.4 1021.7 0.0
27/12:30pm 27.4 22.2 3.8 22 12.0 SE 20 30 11 16 1023.0 1022.3 0.0
27/12:00pm 26.8 21.7 4.0 23 11.6 SE 20 26 11 14 1023.7 1023.0 0.0
27/11:30am 25.9 20.6 3.2 23 11.3 SE 20 30 11 16 1024.0 1023.3 0.0
27/11:00am 24.8 19.7 2.9 24 10.7 SSE 19 24 10 13 1024.6 1023.9 0.0
27/10:30am 23.8 19.1 3.2 26 10.1 SSE 17 26 9 14 1025.0 1024.3 0.0
27/10:00am 21.6 18.4 2.8 29 9.0 SSE 9 11 5 6 1025.3 1024.6 0.0
27/09:30am 20.1 16.7 2.0 30 8.5 SSE 9 15 5 8 1025.6 1024.9 0.0
27/09:00am 18.9 14.7 1.9 32 7.8 S 13 17 7 9 1025.5 1024.8 0.0
27/08:30am 17.5 14.4 1.5 34 7.3 SSW 7 9 4 5 1025.2 1024.5 0.0
27/08:00am 16.5 14.8 1.8 37 6.6 CALM 0 6 0 3 1025.1 1024.4 0.0
27/07:30am 14.0 12.4 2.3 45 5.2 CALM 0 0 0 0 1025.0 1024.3 0.0
27/07:00am 13.3 11.5 1.3 44 5.2 CALM 0 0 0 0 1024.6 1023.9 0.0
27/06:30am 13.9 12.1 1.5 43 5.5 CALM 0 0 0 0 1024.4 1023.7 0.0
27/06:00am 15.1 13.5 2.3 42 5.8 CALM 0 0 0 0 1024.1 1023.4 0.0
27/05:30am 15.0 12.2 1.9 41 5.9 SSE 6 6 3 3 1023.9 1023.2 0.0
27/05:00am 16.1 13.1 2.2 39 6.3 SE 7 7 4 4 1023.6 1022.9 0.0
27/04:30am 16.3 13.9 2.0 38 6.5 E 4 7 2 4 1023.4 1022.7 0.0
27/04:00am 16.7 13.4 2.3 38 6.6 SE 9 13 5 7 1023.2 1022.6 0.0
27/03:30am 15.7 14.0 1.8 39 6.2 CALM 0 6 0 3 1023.4 1022.7 0.0
27/03:00am 17.0 15.1 2.6 38 6.6 NW 2 6 1 3 1023.1 1022.4 0.0
27/02:30am 17.0 15.4 2.2 37 6.8 CALM 0 0 0 0 1023.0 1022.3 0.0
27/02:00am 18.0 15.2 1.9 34 7.4 SSW 6 7 3 4 1022.9 1022.2 0.0
27/01:30am 19.1 16.2 2.5 33 7.8 S 7 9 4 5 1022.9 1022.2 0.0
27/01:00am 19.9 16.6 2.7 32 8.1 S 9 15 5 8 1022.8 1022.1 0.0
27/12:30am 20.6 15.9 2.9 31 8.5 S 17 22 9 12 1022.7 1022.0 0.0
27/12:00am 21.4 16.4 3.6 31 8.6 SSE 19 24 10 13 1022.7 1022.0 0.0
 
Date/Time
EST
Temp
°C
App
Temp
°C
Dew
Point
Rel
Hum
%
Delta-T
°C
Wind Press
QNH
hPa
Press
MSL
hPa
Rain
since 9 am
mm
Dir
 
Spd
km/h
Gust
km/h
Spd
kts
Gust
kts
26/11:30pm 22.1 16.3 4.2 31 8.9 SSE 24 33 13 18 1022.8 1022.1 0.0
26/11:00pm 22.7 17.7 4.7 31 9.0 SSE 20 32 11 17 1022.9 1022.2 0.0
26/10:30pm 23.3 17.7 5.2 31 9.2 SSE 24 33 13 18 1022.6 1021.9 0.0
26/10:00pm 24.0 18.0 5.4 30 9.5 SSE 26 35 14 19 1022.4 1021.7 0.0
26/09:30pm 24.7 19.3 6.4 31 9.6 S 24 32 13 17 1022.1 1021.4 0.0
26/09:00pm 25.5 19.8 6.7 30 9.9 S 26 32 14 17 1021.7 1021.0 0.0
26/08:30pm 26.1 20.5 7.2 30 10.1 S 26 37 14 20 1021.4 1020.7 0.0
26/08:00pm 26.9 20.7 7.9 30 10.3 S 30 41 16 22 1021.0 1020.3 0.0
26/07:30pm 28.0 22.4 8.8 30 10.7 S 28 39 15 21 1020.5 1019.7 0.0
26/07:00pm 28.6 25.2 9.3 30 10.8 S 17 24 9 13 1019.7 1019.0 0.0
26/06:30pm 29.2 26.1 8.8 28 11.4 SSE 15 20 8 11 1019.1 1018.4 0.0
26/06:00pm 30.0 26.9 9.0 27 11.8 SSE 15 19 8 10 1018.6 1017.9 0.0
26/05:30pm 30.9 27.1 9.2 26 12.3 SSE 19 28 10 15 1018.2 1017.5 0.0
26/05:00pm 32.0 29.1 8.3 23 13.3 SSE 13 22 7 12 1017.9 1017.2 0.0
26/04:30pm 31.5 28.3 8.5 24 13.0 SE 15 19 8 10 1017.6 1016.8 0.0
26/04:00pm 32.2 28.6 8.4 23 13.4 SE 17 26 9 14 1017.4 1016.6 0.0
26/03:30pm 31.6 29.0 9.2 25 12.8 SE 13 19 7 10 1017.4 1016.6 0.0
26/03:00pm 32.8 30.9 8.9 23 13.6 NNE 9 26 5 14 1017.2 1016.4 0.0
26/02:30pm 32.2 29.9 9.1 24 13.2 SE 11 24 6 13 1017.6 1016.8 0.0
26/02:00pm 32.1 29.8 9.0 24 13.1 E 11 20 6 11 1017.9 1017.2 0.0
26/01:30pm 31.4 29.0 10.2 27 12.3 SE 13 26 7 14 1018.3 1017.6 0.0
26/01:00pm 31.7 30.4 9.8 26 12.6 SE 7 26 4 14 1018.9 1018.2 0.0
26/12:30pm 31.4 29.2 10.7 28 12.1 ENE 13 20 7 11 1019.5 1018.8 0.0
26/12:00pm 30.2 28.2 10.2 29 11.5 NE 11 19 6 10 1020.2 1019.4 0.0
26/11:30am 28.8 27.3 10.5 32 10.5 NE 9 17 5 9 1020.8 1020.1 0.0
26/11:00am 27.9 25.6 10.6 34 9.9 NE 13 20 7 11 1021.3 1020.6 0.0
26/10:30am 26.7 24.6 11.2 38 8.9 NE 13 19 7 10 1021.6 1020.9 0.0
26/10:00am 26.2 24.1 11.2 39 8.6 ENE 13 20 7 11 1021.7 1021.0 0.0
26/09:30am 24.6 23.2 12.2 46 7.2 ENE 11 17 6 9 1021.9 1021.2 0.0
26/09:00am 23.8 22.1 12.4 48 6.6 E 13 17 7 9 1021.5 1020.8 0.0
26/08:30am 22.5 20.7 12.2 52 5.9 E 13 15 7 8 1021.3 1020.6 0.0
26/08:00am 20.6 19.2 12.1 58 4.8 ESE 11 15 6 8 1021.5 1020.8 0.0
26/07:30am 18.3 16.7 11.4 64 3.8 SE 11 13 6 7 1021.4 1020.7 0.0
26/07:00am 17.3 15.9 10.9 66 3.5 SE 9 11 5 6 1021.0 1020.3 0.0
26/06:30am 17.3 15.5 10.9 66 3.5 SSE 11 15 6 8 1020.8 1020.1 0.0
26/06:00am 17.8 16.0 10.9 64 3.8 SE 11 13 6 7 1020.3 1019.5 0.0
26/05:30am 18.0 16.5 10.6 62 4.0 SE 9 11 5 6 1020.1 1019.3 0.0
26/05:00am 19.1 17.7 10.9 59 4.5 SE 9 11 5 6 1019.7 1019.0 0.0
26/04:30am 20.1 18.8 11.3 57 4.9 ESE 9 11 5 6 1019.6 1018.9 0.0
26/04:00am 20.3 19.0 11.2 56 5.1 SE 9 11 5 6 1019.4 1018.7 0.0
26/03:30am 21.1 20.3 11.7 55 5.3 ESE 7 9 4 5 1019.4 1018.7 0.0
26/03:00am 21.4 20.7 12.0 55 5.3 ENE 7 9 4 5 1019.5 1018.8 0.0
26/02:30am 21.7 21.7 11.1 51 5.9 ENE 2 9 1 5 1019.6 1018.9 0.0
26/02:00am 23.1 22.4 12.1 50 6.3 NE 7 11 4 6 1019.6 1018.9 0.0
26/01:30am 23.9 22.1 12.2 48 6.8 NE 13 17 7 9 1019.6 1018.9 0.0
26/01:00am 24.5 22.3 12.1 46 7.2 NE 15 20 8 11 1019.6 1018.9 0.0
26/12:30am 25.2 22.5 11.7 43 7.8 NE 17 26 9 14 1019.5 1018.8 0.0
26/12:00am 25.8 22.6 11.2 40 8.3 NE 19 26 10 14 1019.6 1018.9 0.0
 
Date/Time
EST
Temp
°C
App
Temp
°C
Dew
Point
Rel
Hum
%
Delta-T
°C
Wind Press
QNH
hPa
Press
MSL
hPa
Rain
since 9 am
mm
Dir
 
Spd
km/h
Gust
km/h
Spd
kts
Gust
kts
25/11:30pm 26.0 22.9 10.2 37 8.9 NE 17 22 9 12 1019.7 1019.0 0.0
25/11:00pm 27.2 23.6 10.0 34 9.7 NE 19 22 10 12 1019.6 1018.9 0.0
25/10:30pm 26.7 24.3 10.0 35 9.4 ENE 13 15 7 8 1019.6 1018.9 0.0
25/10:00pm 26.9 23.9 9.3 33 9.8 E 15 19 8 10 1019.5 1018.8 0.0
25/09:30pm 26.8 23.7 8.7 32 10.0 ESE 15 22 8 12 1019.5 1018.8 0.0
25/09:00pm 24.4 21.5 8.0 35 8.8 S 13 15 7 8 1019.2 1018.5 0.0
25/08:30pm 25.3 23.0 7.4 32 9.6 SSE 9 11 5 6 1019.0 1018.3 0.0
25/08:00pm 26.3 24.5 7.8 31 10.0 SSW 7 9 4 5 1018.7 1018.0 0.0
25/07:30pm 26.8 24.7 8.3 31 10.1 S 9 13 5 7 1018.2 1017.5 0.0
25/07:00pm 27.6 25.4 8.0 29 10.7 SSW 9 11 5 6 1017.7 1016.9 0.0
25/06:30pm 28.6 26.5 8.3 28 11.2 SSW 9 11 5 6 1017.5 1016.7 0.0

Other Formats:

Comma delimited format used in spreadsheet applications
http://www.bom.gov.au/fwo/IDQ60801/IDQ60801.94343.axf

JavaScript Object Notation format (JSON) in row-major order
http://www.bom.gov.au/fwo/IDQ60801/IDQ60801.94343.json